ADDS METAR Data INFO
IDs: Format: Raw Decoded Include TAF

Data at: 1935 UTC 17 Feb 2018

METAR for:PAAK (Atka Arpt, AK, US)
Text:PAAK 171917Z AUTO 14015G21KT 1 1/4SM -RA BR BKN008 OVC013 03/02 A2959 RMK AO2 VIS 1V2 1/2 RAB1857 CIG 005V010 P0000
Temperature: 3.0°C ( 37°F)
Dewpoint: 2.0°C ( 36°F) [RH = 93%]
Pressure (altimeter):29.59 inches Hg (1002.1 mb)
Winds:from the SE (140 degrees) at 17 MPH (15 knots; 7.7 m/s) gusting to 24 MPH (21 knots; 10.8 m/s)
Visibility: 1.25 sm ( 2.01 km)
Ceiling:800 feet AGL
Clouds: broken clouds at 800 feet AGL, overcast cloud deck at 1300 feet AGL
Weather:-RA BR (light rain, mist)
QC Flag:automated observation with no human augmentation
Text:PAAK 171856Z AUTO 14015KT 4SM BR FEW006 OVC011 03/02 A2959 RMK AO2 RAE54UPB00E08 SLP023 P0000 T00330017
Temperature: 3.3°C ( 38°F)
Dewpoint: 1.7°C ( 35°F) [RH = 89%]
Pressure (altimeter):29.59 inches Hg (1002.1 mb) [Sea level pressure: 1002.3 mb]
Winds:from the SE (140 degrees) at 17 MPH (15 knots; 7.7 m/s)
Visibility: 4 sm ( 6 km)
Ceiling:1100 feet AGL
Clouds: few clouds at 600 feet AGL, overcast cloud deck at 1100 feet AGL
Weather:BR (mist)
QC Flag:automated observation with no human augmentation
Text:PAAK 171847Z AUTO 14014G19KT 8SM -RA FEW006 OVC011 03/02 A2960 RMK AO2 UPB00E08 P0000
Temperature: 3.0°C ( 37°F)
Dewpoint: 2.0°C ( 36°F) [RH = 93%]
Pressure (altimeter):29.60 inches Hg (1002.5 mb)
Winds:from the SE (140 degrees) at 16 MPH (14 knots; 7.2 m/s) gusting to 22 MPH (19 knots; 9.8 m/s)
Visibility: 8 sm ( 13 km)
Ceiling:1100 feet AGL
Clouds: few clouds at 600 feet AGL, overcast cloud deck at 1100 feet AGL
Weather:-RA (light rain)
QC Flag:automated observation with no human augmentation
Text:PAAK 171840Z AUTO 15010KT 4SM -RA BR BKN008 OVC013 03/02 A2960 RMK AO2 UPB00E08 CIG 004V009 P0000
Temperature: 3.0°C ( 37°F)
Dewpoint: 2.0°C ( 36°F) [RH = 93%]
Pressure (altimeter):29.60 inches Hg (1002.5 mb)
Winds:from the SSE (150 degrees) at 12 MPH (10 knots; 5.1 m/s)
Visibility: 4 sm ( 6 km)
Ceiling:800 feet AGL
Clouds: broken clouds at 800 feet AGL, overcast cloud deck at 1300 feet AGL
Weather:-RA BR (light rain, mist)
QC Flag:automated observation with no human augmentation
Text:PAAK 171756Z AUTO 13010KT 5SM -RA BR SCT008 OVC014 03/02 A2961 RMK AO2 RAB15E27B45 SLP027 P0000 6//// T00280017 10033 20011 58021
Temperature: 2.8°C ( 37°F)
Dewpoint: 1.7°C ( 35°F) [RH = 92%]
Pressure (altimeter):29.61 inches Hg (1002.8 mb) [Sea level pressure: 1002.7 mb]
Winds:from the SE (130 degrees) at 12 MPH (10 knots; 5.1 m/s)
Visibility: 5 sm ( 8 km)
Ceiling:1400 feet AGL
Clouds: scattered clouds at 800 feet AGL, overcast cloud deck at 1400 feet AGL
Weather:-RA BR (light rain, mist)
QC Flag:automated observation with no human augmentation
Text:PAAK 171656Z AUTO 16006KT 10SM OVC014 03/01 A2963 RMK AO2 RAE01UPB01E21 SLP035 P0000 T00280011
Temperature: 2.8°C ( 37°F)
Dewpoint: 1.1°C ( 34°F) [RH = 89%]
Pressure (altimeter):29.63 inches Hg (1003.5 mb) [Sea level pressure: 1003.5 mb]
Winds:from the SSE (160 degrees) at 7 MPH (6 knots; 3.1 m/s)
Visibility:10 or more sm (16+ km)
Ceiling:1400 feet AGL
Clouds: overcast cloud deck at 1400 feet AGL
QC Flag:automated observation with no human augmentation
Text:PAAK 171556Z AUTO 15006KT 6SM -RA BR OVC012 03/01 A2965 RMK AO2 UPB03E09B28E32 SLP040 P0001 T00280011
Temperature: 2.8°C ( 37°F)
Dewpoint: 1.1°C ( 34°F) [RH = 89%]
Pressure (altimeter):29.65 inches Hg (1004.1 mb) [Sea level pressure: 1004.0 mb]
Winds:from the SSE (150 degrees) at 7 MPH (6 knots; 3.1 m/s)
Visibility: 6 sm ( 10 km)
Ceiling:1200 feet AGL
Clouds: overcast cloud deck at 1200 feet AGL
Weather:-RA BR (light rain, mist)
QC Flag:automated observation with no human augmentation
Text:PAAK 171507Z AUTO 12011KT 6SM UP BR SCT008 OVC013 02/02 A2966 RMK AO2 RAE03UPB03 P0000 FZRANO
Temperature: 2.0°C ( 36°F)
Dewpoint: 2.0°C ( 36°F) [RH = 100%]
Pressure (altimeter):29.66 inches Hg (1004.5 mb)
Winds:from the ESE (120 degrees) at 13 MPH (11 knots; 5.7 m/s)
Visibility: 6 sm ( 10 km)
Ceiling:1300 feet AGL
Clouds: scattered clouds at 800 feet AGL, overcast cloud deck at 1300 feet AGL
Weather:BR UP (mist, unknown precipitation)
QC Flag:automated observation with no human augmentation
Text:PAAK 171456Z AUTO 13010KT 4SM -RA BR BKN010 OVC013 03/02 A2967 RMK AO2 CIG 007V012 SLP048 P0000 6//// T00280017 56033
Temperature: 2.8°C ( 37°F)
Dewpoint: 1.7°C ( 35°F) [RH = 92%]
Pressure (altimeter):29.67 inches Hg (1004.8 mb) [Sea level pressure: 1004.8 mb]
Winds:from the SE (130 degrees) at 12 MPH (10 knots; 5.1 m/s)
Visibility: 4 sm ( 6 km)
Ceiling:1000 feet AGL
Clouds: broken clouds at 1000 feet AGL, overcast cloud deck at 1300 feet AGL
Weather:-RA BR (light rain, mist)
QC Flag:automated observation with no human augmentation
Text:PAAK 171444Z AUTO 12008KT 9SM OVC010 02/01 A2967 RMK AO2 RAE36 CIG 006V015 P0000 FZRANO
Temperature: 2.0°C ( 36°F)
Dewpoint: 1.0°C ( 34°F) [RH = 93%]
Pressure (altimeter):29.67 inches Hg (1004.8 mb)
Winds:from the ESE (120 degrees) at 9 MPH (8 knots; 4.1 m/s)
Visibility: 9 sm ( 14 km)
Ceiling:1000 feet AGL
Clouds: overcast cloud deck at 1000 feet AGL
QC Flag:automated observation with no human augmentation
Text:PAAK 171420Z AUTO 12010KT 5SM -RA BR BKN007 OVC010 02/01 A2968 RMK AO2 CIG 004V009 P0000 FZRANO
Temperature: 2.0°C ( 36°F)
Dewpoint: 1.0°C ( 34°F) [RH = 93%]
Pressure (altimeter):29.68 inches Hg (1005.2 mb)
Winds:from the ESE (120 degrees) at 12 MPH (10 knots; 5.1 m/s)
Visibility: 5 sm ( 8 km)
Ceiling:700 feet AGL
Clouds: broken clouds at 700 feet AGL, overcast cloud deck at 1000 feet AGL
Weather:-RA BR (light rain, mist)
QC Flag:automated observation with no human augmentation
Text:PAAK 171405Z AUTO 13007KT 2 1/2SM RA BR BKN009 OVC014 02/01 A2968 RMK AO2 CIG 005V012 P0000 FZRANO
Temperature: 2.0°C ( 36°F)
Dewpoint: 1.0°C ( 34°F) [RH = 93%]
Pressure (altimeter):29.68 inches Hg (1005.2 mb)
Winds:from the SE (130 degrees) at 8 MPH (7 knots; 3.6 m/s)
Visibility: 2.50 sm ( 4.02 km)
Ceiling:900 feet AGL
Clouds: broken clouds at 900 feet AGL, overcast cloud deck at 1400 feet AGL
Weather:RA BR (moderate rain, mist)
QC Flag:automated observation with no human augmentation
Text:PAAK 171356Z AUTO 13008KT 3SM -RA BR FEW005 OVC011 02/01 A2969 RMK AO2 SLP055 P0001 T00220011 FZRANO
Temperature: 2.2°C ( 36°F)
Dewpoint: 1.1°C ( 34°F) [RH = 92%]
Pressure (altimeter):29.69 inches Hg (1005.5 mb) [Sea level pressure: 1005.5 mb]
Winds:from the SE (130 degrees) at 9 MPH (8 knots; 4.1 m/s)
Visibility: 3 sm ( 5 km)
Ceiling:1100 feet AGL
Clouds: few clouds at 500 feet AGL, overcast cloud deck at 1100 feet AGL
Weather:-RA BR (light rain, mist)
QC Flag:automated observation with no human augmentation
Text:PAAK 171328Z AUTO 09009KT 4SM -RA BR OVC005 02/01 A2971 RMK AO2 P0000 FZRANO
Temperature: 2.0°C ( 36°F)
Dewpoint: 1.0°C ( 34°F) [RH = 93%]
Pressure (altimeter):29.71 inches Hg (1006.2 mb)
Winds:from the E (90 degrees) at 10 MPH (9 knots; 4.6 m/s)
Visibility: 4 sm ( 6 km)
Ceiling:500 feet AGL
Clouds: overcast cloud deck at 500 feet AGL
Weather:-RA BR (light rain, mist)
QC Flag:automated observation with no human augmentation
Text:PAAK 171313Z AUTO 06008KT 4SM -RA BR OVC007 01/01 A2971 RMK AO2 P0000 FZRANO
Temperature: 1.0°C ( 34°F)
Dewpoint: 1.0°C ( 34°F) [RH = 100%]
Pressure (altimeter):29.71 inches Hg (1006.2 mb)
Winds:from the ENE (60 degrees) at 9 MPH (8 knots; 4.1 m/s)
Visibility: 4 sm ( 6 km)
Ceiling:700 feet AGL
Clouds: overcast cloud deck at 700 feet AGL
Weather:-RA BR (light rain, mist)
QC Flag:automated observation with no human augmentation
Text:PAAK 171256Z AUTO 08008KT 2SM -RA BR OVC007 02/01 A2973 RMK AO2 SLP069 T00170006 FZRANO
Temperature: 1.7°C ( 35°F)
Dewpoint: 0.6°C ( 33°F) [RH = 92%]
Pressure (altimeter):29.73 inches Hg (1006.9 mb) [Sea level pressure: 1006.9 mb]
Winds:from the E (80 degrees) at 9 MPH (8 knots; 4.1 m/s)
Visibility: 2.00 sm ( 3.22 km)
Ceiling:700 feet AGL
Clouds: overcast cloud deck at 700 feet AGL
Weather:-RA BR (light rain, mist)
QC Flag:automated observation with no human augmentation
Text:PAAK 171156Z AUTO 09010KT 2 1/2SM -RA BR OVC011 02/01 A2977 RMK AO2 UPE22RAB22 SLP081 6//// 7//// T00170006 10039 20017 56043 FZRANO PNO $
Temperature: 1.7°C ( 35°F)
Dewpoint: 0.6°C ( 33°F) [RH = 92%]
Pressure (altimeter):29.77 inches Hg (1008.2 mb) [Sea level pressure: 1008.1 mb]
Winds:from the E (90 degrees) at 12 MPH (10 knots; 5.1 m/s)
Visibility: 2.50 sm ( 4.02 km)
Ceiling:1100 feet AGL
Clouds: overcast cloud deck at 1100 feet AGL
Weather:-RA BR (light rain, mist)
QC Flag:automated observation with no human augmentation; SOME DATA ABOVE MAY BE INACCURATE!!!"$" is an indication the sensor requires maintenance.
Text:PAAK 171056Z AUTO 10013KT 7SM UP BKN013 OVC018 02/01 A2981 RMK AO2 UPB40 SLP094 T00220006 FZRANO PNO $
Temperature: 2.2°C ( 36°F)
Dewpoint: 0.6°C ( 33°F) [RH = 89%]
Pressure (altimeter):29.81 inches Hg (1009.6 mb) [Sea level pressure: 1009.4 mb]
Winds:from the E (100 degrees) at 15 MPH (13 knots; 6.7 m/s)
Visibility: 7 sm ( 11 km)
Ceiling:1300 feet AGL
Clouds: broken clouds at 1300 feet AGL, overcast cloud deck at 1800 feet AGL
Weather:UP (unknown precipitation)
QC Flag:automated observation with no human augmentation; SOME DATA ABOVE MAY BE INACCURATE!!!"$" is an indication the sensor requires maintenance.
Text:PAAK 171022Z AUTO 10016KT 10SM BKN021 BKN027 OVC050 03/00 A2983 RMK AO2 PNO $
Temperature: 3.0°C ( 37°F)
Dewpoint: 0.0°C ( 32°F) [RH = 81%]
Pressure (altimeter):29.83 inches Hg (1010.2 mb)
Winds:from the E (100 degrees) at 18 MPH (16 knots; 8.2 m/s)
Visibility:10 or more sm (16+ km)
Ceiling:2100 feet AGL
Clouds: broken clouds at 2100 feet AGL, broken clouds at 2700 feet AGL, overcast cloud deck at 5000 feet AGL
QC Flag:automated observation with no human augmentation; SOME DATA ABOVE MAY BE INACCURATE!!!"$" is an indication the sensor requires maintenance.
Text:PAAK 170934Z AUTO 12019KT 7SM BKN018 OVC028 03/M01 A2987 RMK AO2 PK WND 12027/0924 PNO $
Temperature: 3.0°C ( 37°F)
Dewpoint: -1.0°C ( 30°F) [RH = 75%]
Pressure (altimeter):29.87 inches Hg (1011.6 mb)
Winds:from the ESE (120 degrees) at 22 MPH (19 knots; 9.8 m/s)
Visibility: 7 sm ( 11 km)
Ceiling:1800 feet AGL
Clouds: broken clouds at 1800 feet AGL, overcast cloud deck at 2800 feet AGL
QC Flag:automated observation with no human augmentation; SOME DATA ABOVE MAY BE INACCURATE!!!"$" is an indication the sensor requires maintenance.
Text:PAAK 170908Z AUTO 12019KT 6SM HZ SCT021 BKN035 OVC065 03/M01 A2989 RMK AO2 PNO $
Temperature: 3.0°C ( 37°F)
Dewpoint: -1.0°C ( 30°F) [RH = 75%]
Pressure (altimeter):29.89 inches Hg (1012.3 mb)
Winds:from the ESE (120 degrees) at 22 MPH (19 knots; 9.8 m/s)
Visibility: 6 sm ( 10 km)
Ceiling:3500 feet AGL
Clouds: scattered clouds at 2100 feet AGL, broken clouds at 3500 feet AGL, overcast cloud deck at 6500 feet AGL
Weather:HZ (haze)
QC Flag:automated observation with no human augmentation; SOME DATA ABOVE MAY BE INACCURATE!!!"$" is an indication the sensor requires maintenance.
Text:PAAK 170856Z AUTO 13018KT 6SM HZ BKN021 BKN031 OVC043 03/00 A2990 RMK AO2 PK WND 12028/0809 SLP125 6//// T00330000 58033 PNO $
Temperature: 3.3°C ( 38°F)
Dewpoint: 0.0°C ( 32°F) [RH = 79%]
Pressure (altimeter):29.90 inches Hg (1012.6 mb) [Sea level pressure: 1012.5 mb]
Winds:from the SE (130 degrees) at 21 MPH (18 knots; 9.3 m/s)
Visibility: 6 sm ( 10 km)
Ceiling:2100 feet AGL
Clouds: broken clouds at 2100 feet AGL, broken clouds at 3100 feet AGL, overcast cloud deck at 4300 feet AGL
Weather:HZ (haze)
QC Flag:automated observation with no human augmentation; SOME DATA ABOVE MAY BE INACCURATE!!!"$" is an indication the sensor requires maintenance.
Text:PAAK 170756Z AUTO 12025G30KT 5SM HZ BKN018 OVC025 04/01 A2994 RMK AO2 PK WND 12030/0756 SLP138 T00390006 PNO $
Temperature: 3.9°C ( 39°F)
Dewpoint: 0.6°C ( 33°F) [RH = 79%]
Pressure (altimeter):29.94 inches Hg (1014.0 mb) [Sea level pressure: 1013.8 mb]
Winds:from the ESE (120 degrees) at 29 MPH (25 knots; 12.9 m/s) gusting to 34 MPH (30 knots; 15.4 m/s)
Visibility: 5 sm ( 8 km)
Ceiling:1800 feet AGL
Clouds: broken clouds at 1800 feet AGL, overcast cloud deck at 2500 feet AGL
Weather:HZ (haze)
QC Flag:automated observation with no human augmentation; SOME DATA ABOVE MAY BE INACCURATE!!!"$" is an indication the sensor requires maintenance.